createdAt,value
2023-03-07T00:00:51.458Z,2.04
2023-03-07T00:03:58.071Z,1.93
2023-03-07T00:07:03.534Z,1.84
2023-03-07T00:10:09.656Z,1.76
2023-03-07T00:13:16.103Z,1.70
2023-03-07T00:16:24.779Z,1.68
2023-03-07T00:19:31.599Z,1.68
2023-03-07T00:22:38.012Z,1.69
2023-03-07T00:25:38.099Z,1.71
2023-03-07T00:28:44.007Z,1.74
2023-03-07T00:31:49.065Z,1.77
2023-03-07T00:34:56.534Z,1.78
2023-03-07T00:38:01.278Z,1.75
2023-03-07T00:41:18.851Z,1.70
2023-03-07T00:44:18.352Z,1.67
2023-03-07T00:47:05.422Z,1.60
2023-03-07T00:49:57.509Z,1.54
2023-03-07T00:52:44.829Z,1.50
2023-03-07T00:55:44.139Z,1.50
2023-03-07T00:58:51.276Z,1.48
2023-03-07T01:01:57.705Z,1.47
2023-03-07T01:05:03.979Z,1.45
2023-03-07T01:08:10.068Z,1.45
2023-03-07T01:11:18.995Z,1.45
2023-03-07T01:14:25.825Z,1.45
2023-03-07T01:17:32.703Z,1.44
2023-03-07T01:20:39.282Z,1.44
2023-03-07T01:23:45.851Z,1.45
2023-03-07T01:26:52.223Z,1.45
2023-03-07T01:29:58.366Z,1.44
2023-03-07T01:33:06.049Z,1.44
2023-03-07T01:36:12.252Z,1.44
2023-03-07T01:39:28.319Z,1.43
2023-03-07T01:42:36.223Z,1.42
2023-03-07T01:45:55.278Z,1.43
2023-03-07T01:49:18.294Z,1.42
2023-03-07T01:52:41.617Z,1.40
2023-03-07T01:55:49.201Z,1.38
2023-03-07T01:58:55.877Z,1.37
2023-03-07T02:02:01.720Z,1.37
2023-03-07T02:05:32.100Z,1.35
2023-03-07T02:08:37.833Z,1.33
2023-03-07T02:11:43.301Z,1.36
2023-03-07T02:14:49.308Z,1.38
2023-03-07T02:17:58.201Z,1.39
2023-03-07T02:21:24.504Z,1.39
2023-03-07T02:27:59.553Z,1.38
2023-03-07T02:31:18.094Z,1.35
2023-03-07T02:34:41.916Z,1.37
2023-03-07T02:37:53.294Z,1.35
2023-03-07T02:40:58.720Z,1.37
2023-03-07T02:43:59.641Z,1.36
2023-03-07T02:46:46.619Z,1.35
2023-03-07T02:49:39.963Z,1.37
2023-03-07T02:52:35.000Z,1.36
2023-03-07T02:55:40.317Z,1.37
2023-03-07T02:58:48.400Z,1.36
2023-03-07T03:01:54.210Z,1.36
2023-03-07T03:04:59.875Z,1.33
2023-03-07T03:08:07.719Z,1.31
2023-03-07T03:11:13.626Z,1.27
2023-03-07T03:14:19.884Z,1.25
2023-03-07T03:17:26.481Z,1.26
2023-03-07T03:20:32.257Z,1.28
2023-03-07T03:23:40.638Z,1.31
2023-03-07T03:26:45.715Z,1.35
2023-03-07T03:29:53.382Z,1.39
2023-03-07T03:33:01.009Z,1.38
2023-03-07T03:36:07.316Z,1.32
2023-03-07T03:39:15.936Z,1.27
2023-03-07T03:42:24.082Z,1.23
2023-03-07T03:45:31.199Z,1.19
2023-03-07T03:48:36.971Z,1.19
2023-03-07T03:51:43.360Z,1.20
2023-03-07T03:54:49.443Z,1.24
2023-03-07T03:57:56.969Z,1.25
2023-03-07T04:01:02.509Z,1.27
2023-03-07T04:04:03.865Z,1.26
2023-03-07T04:07:11.625Z,1.26
2023-03-07T04:10:20.213Z,1.25
2023-03-07T04:13:27.473Z,1.23
2023-03-07T04:16:33.637Z,1.22
2023-03-07T04:19:40.983Z,1.19
2023-03-07T04:22:46.873Z,1.19
2023-03-07T04:25:55.330Z,1.14
2023-03-07T04:29:03.129Z,1.08
2023-03-07T04:32:12.957Z,1.00
2023-03-07T04:35:15.382Z,0.98
2023-03-07T04:38:22.602Z,0.93
2023-03-07T04:41:33.927Z,0.92
2023-03-07T04:44:51.173Z,0.92
2023-03-07T04:47:56.967Z,1.00
2023-03-07T04:51:08.479Z,1.02
2023-03-07T04:54:14.865Z,1.02
2023-03-07T04:57:22.632Z,1.11
2023-03-07T05:00:29.157Z,1.12
2023-03-07T05:03:35.505Z,1.19
2023-03-07T05:06:42.524Z,1.23
2023-03-07T05:09:48.370Z,1.28
2023-03-07T05:12:56.051Z,1.31
2023-03-07T05:16:07.409Z,1.34
2023-03-07T05:19:14.059Z,1.44
2023-03-07T05:22:21.584Z,1.52
2023-03-07T05:25:28.659Z,1.61
2023-03-07T05:28:37.237Z,1.67
2023-03-07T05:31:43.388Z,1.76
2023-03-07T05:34:52.551Z,1.84
2023-03-07T05:37:58.616Z,1.90
2023-03-07T05:41:04.267Z,1.94
2023-03-07T05:44:10.494Z,2.03
2023-03-07T05:47:15.886Z,2.08
2023-03-07T05:50:22.795Z,2.16
2023-03-07T05:53:29.065Z,2.23
2023-03-07T05:56:34.988Z,2.29
2023-03-07T05:59:40.116Z,2.37
2023-03-07T06:02:45.600Z,2.46
2023-03-07T06:05:51.638Z,2.51
2023-03-07T06:08:51.149Z,2.58
2023-03-07T06:11:56.004Z,2.73
2023-03-07T06:15:01.626Z,2.90
2023-03-07T06:18:09.302Z,3.06
2023-03-07T06:21:18.416Z,3.17
2023-03-07T06:24:24.432Z,3.29
2023-03-07T06:27:30.572Z,3.37
2023-03-07T06:30:37.684Z,3.46
2023-03-07T06:33:44.349Z,3.59
2023-03-07T06:36:51.532Z,3.64
2023-03-07T06:39:58.029Z,3.71
2023-03-07T06:43:03.986Z,3.78
2023-03-07T06:46:09.714Z,3.88
2023-03-07T06:49:15.190Z,4.00
2023-03-07T06:52:21.858Z,4.14
2023-03-07T06:55:29.493Z,4.27
2023-03-07T06:58:35.795Z,4.48
2023-03-07T07:01:42.878Z,4.68
2023-03-07T07:04:50.153Z,4.80
2023-03-07T07:07:56.132Z,4.94
2023-03-07T07:11:02.148Z,5.05
2023-03-07T07:14:09.695Z,5.12
2023-03-07T07:17:17.074Z,5.12
2023-03-07T07:20:25.079Z,5.20
2023-03-07T07:23:26.335Z,5.24
2023-03-07T07:26:19.633Z,5.36
2023-03-07T07:29:24.698Z,5.59
2023-03-07T07:33:18.412Z,5.78
2023-03-07T07:36:25.764Z,5.87
2023-03-07T07:39:33.250Z,5.82
2023-03-07T07:42:38.275Z,5.94
2023-03-07T07:45:49.062Z,6.10
2023-03-07T07:48:55.834Z,6.24
2023-03-07T07:52:01.514Z,6.40
2023-03-07T07:55:08.749Z,6.48
2023-03-07T07:58:13.844Z,6.50
2023-03-07T08:01:34.207Z,6.58
2023-03-07T08:04:39.749Z,6.73
2023-03-07T08:07:45.820Z,6.87
2023-03-07T08:10:51.898Z,7.00
2023-03-07T08:13:58.339Z,7.10
2023-03-07T08:17:04.599Z,7.21
2023-03-07T08:20:13.134Z,7.26
2023-03-07T08:23:18.357Z,7.30
2023-03-07T08:26:25.791Z,7.41
2023-03-07T08:29:32.320Z,7.57
2023-03-07T08:32:37.194Z,7.60
2023-03-07T08:35:42.313Z,7.47
2023-03-07T08:38:47.568Z,7.30
2023-03-07T08:41:52.965Z,7.24
2023-03-07T08:44:58.440Z,7.25
2023-03-07T08:48:10.415Z,7.43
2023-03-07T08:51:23.158Z,7.58
2023-03-07T08:54:29.161Z,7.60
2023-03-07T08:57:35.447Z,7.74
2023-03-07T09:00:40.710Z,7.84
2023-03-07T09:03:46.965Z,7.85
2023-03-07T09:06:52.985Z,7.83
2023-03-07T09:09:58.833Z,7.81
2023-03-07T09:13:05.575Z,7.84
2023-03-07T09:16:11.178Z,7.88
2023-03-07T09:19:16.763Z,7.91
2023-03-07T09:22:23.479Z,7.98
2023-03-07T09:25:29.671Z,8.14
2023-03-07T09:28:35.873Z,8.33
2023-03-07T09:31:42.085Z,8.54
2023-03-07T09:34:48.981Z,8.72
2023-03-07T09:37:54.515Z,8.85
2023-03-07T09:41:02.453Z,8.98
2023-03-07T09:44:33.036Z,9.13
2023-03-07T09:48:07.017Z,9.20
2023-03-07T09:51:28.961Z,9.16
2023-03-07T09:54:41.485Z,9.07
2023-03-07T09:57:54.720Z,9.03
2023-03-07T10:01:00.670Z,9.05
2023-03-07T10:04:21.134Z,9.15
2023-03-07T10:07:19.127Z,9.19
2023-03-07T10:10:21.119Z,9.14
2023-03-07T10:13:51.717Z,9.12
2023-03-07T10:17:43.162Z,9.09
2023-03-07T10:20:58.554Z,9.04
2023-03-07T10:24:26.784Z,9.05
2023-03-07T10:27:32.090Z,9.09
2023-03-07T10:30:37.846Z,9.18
2023-03-07T10:33:43.978Z,9.17
2023-03-07T10:37:08.156Z,9.22
2023-03-07T10:40:11.486Z,9.27
2023-03-07T10:43:17.181Z,9.31
2023-03-07T10:46:41.551Z,9.42
2023-03-07T10:50:05.536Z,9.50
2023-03-07T10:53:10.832Z,9.52
2023-03-07T10:56:33.510Z,9.46
2023-03-07T10:59:40.340Z,9.41
2023-03-07T11:02:57.182Z,9.40
2023-03-07T11:06:04.007Z,9.46
2023-03-07T11:09:09.103Z,9.53
2023-03-07T11:12:27.242Z,9.65
2023-03-07T11:15:35.902Z,9.72
2023-03-07T11:18:55.800Z,9.78
2023-03-07T11:22:05.159Z,9.80
2023-03-07T11:25:20.432Z,9.83
2023-03-07T11:28:49.620Z,9.82
2023-03-07T11:32:06.618Z,9.76
2023-03-07T11:35:22.509Z,9.79
2023-03-07T11:38:52.167Z,9.84
2023-03-07T11:42:02.448Z,9.81
2023-03-07T11:45:16.968Z,9.85
2023-03-07T11:48:58.763Z,9.90
2023-03-07T11:52:43.619Z,9.93
2023-03-07T11:56:12.564Z,9.99
2023-03-07T11:59:46.617Z,10.10
2023-03-07T12:03:00.837Z,10.21
2023-03-07T12:06:34.541Z,10.36
2023-03-07T12:10:04.534Z,10.42
2023-03-07T12:13:31.980Z,10.47
2023-03-07T12:16:59.374Z,10.53
2023-03-07T12:20:32.853Z,10.61
2023-03-07T12:23:48.985Z,10.62
2023-03-07T12:27:18.443Z,10.64
2023-03-07T12:31:01.433Z,10.65
2023-03-07T12:34:12.248Z,10.57
2023-03-07T12:37:32.131Z,10.53
2023-03-07T12:40:59.603Z,10.45
2023-03-07T12:44:09.403Z,10.43
2023-03-07T12:47:43.806Z,10.42
2023-03-07T12:51:26.735Z,10.40
2023-03-07T12:54:48.038Z,10.41
2023-03-07T12:57:58.048Z,10.37
2023-03-07T13:01:12.950Z,10.32
2023-03-07T13:04:34.068Z,10.31
2023-03-07T13:07:46.859Z,10.33
2023-03-07T13:10:52.347Z,10.38
2023-03-07T13:14:05.237Z,10.41
2023-03-07T13:17:10.063Z,10.43
2023-03-07T13:20:17.507Z,10.44
2023-03-07T13:23:30.559Z,10.45
2023-03-07T13:26:38.193Z,10.46
2023-03-07T13:30:19.945Z,10.46
2023-03-07T13:33:36.567Z,10.46
2023-03-07T13:36:52.726Z,10.40
2023-03-07T13:39:57.782Z,10.36
2023-03-07T13:43:03.264Z,10.31
2023-03-07T13:46:52.480Z,10.24
2023-03-07T13:49:59.292Z,10.21
2023-03-07T13:53:04.771Z,10.15
2023-03-07T13:56:55.501Z,10.12
2023-03-07T14:00:42.213Z,10.09
2023-03-07T14:03:54.798Z,10.05
2023-03-07T14:07:21.001Z,10.00
2023-03-07T14:10:39.271Z,9.95
2023-03-07T14:14:14.568Z,9.83
2023-03-07T14:17:27.044Z,9.74
2023-03-07T14:21:00.034Z,9.65
2023-03-07T14:24:07.201Z,9.56
2023-03-07T14:27:16.133Z,9.50
2023-03-07T14:30:29.546Z,9.48
2023-03-07T14:33:36.271Z,9.45
2023-03-07T14:36:46.124Z,9.40
2023-03-07T14:40:30.105Z,9.32
2023-03-07T14:44:11.807Z,9.29
2023-03-07T14:47:39.144Z,9.24
2023-03-07T14:50:47.571Z,9.23
2023-03-07T14:53:53.176Z,9.15
2023-03-07T14:56:59.735Z,9.08
2023-03-07T15:00:37.060Z,9.01
2023-03-07T15:03:43.485Z,8.95
2023-03-07T15:06:57.225Z,8.86
2023-03-07T15:10:03.489Z,8.83
2023-03-07T15:13:13.483Z,8.77
2023-03-07T15:16:27.476Z,8.79
2023-03-07T15:19:36.897Z,8.73
2023-03-07T15:22:47.827Z,8.68
2023-03-07T15:25:54.494Z,8.68
2023-03-07T15:29:00.585Z,8.64
2023-03-07T15:32:14.741Z,8.59
2023-03-07T15:35:30.621Z,8.63
2023-03-07T15:38:39.127Z,8.51
2023-03-07T15:41:48.440Z,8.28
2023-03-07T15:44:54.716Z,8.35
2023-03-07T15:48:01.199Z,8.25
2023-03-07T15:51:09.429Z,8.20
2023-03-07T15:54:39.120Z,8.17
2023-03-07T15:57:52.679Z,8.00
2023-03-07T16:00:58.685Z,8.01
2023-03-07T16:04:11.297Z,8.02
2023-03-07T16:07:17.923Z,8.04
2023-03-07T16:10:24.306Z,7.97
2023-03-07T16:13:31.911Z,7.87
2023-03-07T16:16:39.581Z,7.97
2023-03-07T16:22:59.272Z,7.84
2023-03-07T16:26:04.546Z,7.79
2023-03-07T16:29:10.758Z,7.72
2023-03-07T16:32:17.252Z,7.69
2023-03-07T16:35:34.351Z,7.68
2023-03-07T16:38:40.212Z,7.66
2023-03-07T16:41:47.205Z,7.64
2023-03-07T16:44:53.853Z,7.74
2023-03-07T16:48:01.557Z,7.80
2023-03-07T16:51:07.328Z,7.69
2023-03-07T16:54:14.554Z,7.62
2023-03-07T16:57:24.125Z,7.52
2023-03-07T17:00:33.800Z,7.48
2023-03-07T17:03:40.297Z,7.47
2023-03-07T17:06:48.757Z,7.39
2023-03-07T17:09:53.612Z,7.36
2023-03-07T17:13:00.472Z,7.23
2023-03-07T17:16:07.009Z,7.18
2023-03-07T17:19:12.300Z,7.12
2023-03-07T17:22:20.239Z,7.05
2023-03-07T17:25:25.590Z,6.97
2023-03-07T17:28:32.935Z,7.06
2023-03-07T17:31:39.520Z,7.13
2023-03-07T17:34:46.660Z,7.17
2023-03-07T17:37:53.959Z,7.22
2023-03-07T17:40:59.388Z,7.13
2023-03-07T17:44:04.988Z,7.21
2023-03-07T17:47:11.545Z,7.18
2023-03-07T17:50:17.209Z,7.13
2023-03-07T17:53:24.023Z,6.99
2023-03-07T17:56:30.342Z,6.84
2023-03-07T17:59:36.036Z,6.77
2023-03-07T18:02:42.334Z,6.78
2023-03-07T18:05:48.721Z,6.82
2023-03-07T18:08:53.851Z,6.80
2023-03-07T18:12:00.648Z,6.78
2023-03-07T18:15:07.336Z,6.85
2023-03-07T18:18:14.087Z,6.85
2023-03-07T18:21:22.925Z,6.87
2023-03-07T18:24:42.596Z,6.82
2023-03-07T18:27:48.199Z,6.64
2023-03-07T18:30:55.216Z,6.52
2023-03-07T18:34:08.192Z,6.39
2023-03-07T18:37:15.612Z,6.36
2023-03-07T18:40:22.569Z,6.20
2023-03-07T18:43:28.335Z,6.12
2023-03-07T18:46:39.547Z,6.11
2023-03-07T18:49:46.046Z,6.09
2023-03-07T18:52:53.004Z,6.07
2023-03-07T18:56:00.117Z,6.02
2023-03-07T18:59:08.387Z,6.03
2023-03-07T19:02:13.131Z,6.01
2023-03-07T19:05:19.257Z,6.05
2023-03-07T19:08:25.086Z,6.04
2023-03-07T19:11:33.634Z,6.07
2023-03-07T19:14:40.615Z,6.11
2023-03-07T19:17:45.569Z,6.12
2023-03-07T19:20:56.200Z,6.10
2023-03-07T19:24:02.669Z,6.10
2023-03-07T19:27:07.481Z,6.09
2023-03-07T19:30:13.304Z,6.04
2023-03-07T19:33:19.107Z,5.96
2023-03-07T19:36:30.012Z,5.92
2023-03-07T19:39:36.174Z,5.82
2023-03-07T19:42:41.891Z,5.74
2023-03-07T19:45:48.247Z,5.61
2023-03-07T19:48:54.897Z,5.55
2023-03-07T19:52:01.614Z,5.45
2023-03-07T19:55:07.586Z,5.37
2023-03-07T19:58:13.764Z,5.27
2023-03-07T20:01:27.742Z,5.22
2023-03-07T20:04:34.324Z,5.08
2023-03-07T20:07:39.941Z,4.96
2023-03-07T20:10:45.484Z,4.92
2023-03-07T20:13:53.194Z,4.92
2023-03-07T20:16:58.690Z,4.85
2023-03-07T20:20:06.380Z,4.84
2023-03-07T20:23:04.593Z,4.82
2023-03-07T20:26:23.791Z,4.83
2023-03-07T20:29:31.625Z,4.78
2023-03-07T20:32:38.181Z,4.67
2023-03-07T20:35:45.123Z,4.64
2023-03-07T20:38:45.094Z,4.65
2023-03-07T20:41:51.641Z,4.63
2023-03-07T20:44:57.684Z,4.61
2023-03-07T20:48:03.642Z,4.58
2023-03-07T20:51:08.652Z,4.50
2023-03-07T20:54:20.119Z,4.39
2023-03-07T20:57:26.123Z,4.29
2023-03-07T21:00:32.336Z,4.27
2023-03-07T21:03:38.282Z,4.25
2023-03-07T21:06:46.533Z,4.19
2023-03-07T21:09:46.032Z,4.13
2023-03-07T21:12:39.755Z,4.05
2023-03-07T21:15:47.952Z,4.09
2023-03-07T21:18:54.643Z,4.12
2023-03-07T21:22:00.486Z,4.09
2023-03-07T21:25:06.523Z,4.14
2023-03-07T21:28:13.183Z,4.14
2023-03-07T21:31:31.075Z,4.12
2023-03-07T21:34:37.819Z,4.22
2023-03-07T21:37:44.672Z,4.23
2023-03-07T21:40:50.602Z,4.33
2023-03-07T21:43:57.166Z,4.33
2023-03-07T21:47:03.505Z,4.42
2023-03-07T21:50:11.090Z,4.48
2023-03-07T21:53:16.805Z,4.53
2023-03-07T21:56:25.340Z,4.65
2023-03-07T21:59:31.310Z,4.74
2023-03-07T22:02:37.054Z,4.79
2023-03-07T22:05:36.440Z,4.80
2023-03-07T22:08:22.363Z,4.76
2023-03-07T22:11:16.671Z,4.78
2023-03-07T22:14:04.500Z,4.81
2023-03-07T22:16:57.298Z,4.83
2023-03-07T22:19:44.570Z,4.86
2023-03-07T22:22:37.029Z,4.86
2023-03-07T22:25:30.553Z,4.85
2023-03-07T22:28:36.680Z,4.85
2023-03-07T22:31:41.901Z,4.78
2023-03-07T22:34:47.343Z,4.72
2023-03-07T22:37:52.663Z,4.60
2023-03-07T22:40:58.296Z,4.48
2023-03-07T22:44:03.122Z,4.36
2023-03-07T22:47:08.418Z,4.31
2023-03-07T22:50:13.516Z,4.19
2023-03-07T22:53:18.362Z,4.11
2023-03-07T22:56:34.701Z,4.02
2023-03-07T22:59:39.461Z,3.93
2023-03-07T23:02:46.057Z,3.92
2023-03-07T23:05:52.046Z,3.94
2023-03-07T23:09:02.969Z,3.95
2023-03-07T23:12:09.141Z,3.96
2023-03-07T23:15:15.323Z,4.03
2023-03-07T23:18:20.965Z,3.96
2023-03-07T23:21:27.380Z,3.89
2023-03-07T23:24:32.961Z,3.87
2023-03-07T23:27:39.580Z,3.85
2023-03-07T23:30:45.758Z,3.87
2023-03-07T23:33:51.660Z,3.90
2023-03-07T23:36:58.354Z,3.88
2023-03-07T23:40:05.795Z,3.89
2023-03-07T23:43:12.254Z,3.93
2023-03-07T23:46:18.873Z,4.00
2023-03-07T23:49:26.361Z,4.09
2023-03-07T23:52:31.472Z,4.14
2023-03-07T23:55:37.377Z,4.23
2023-03-07T23:58:43.211Z,4.31
